Time;durP1;ratioP1;P1;durP2;ratioP2;P2;SDS_P1;SDS_P2;PMS_P1;PMS_P2;Temp;Humidity;BMP_temperature;BMP_pressure;BME280_temperature;BME280_humidity;BME280_pressure;Samples;Min_cycle;Max_cycle;Signal;HPM_P1;HPM_P2
2023/05/09 00:04:02;;;;;;;11.57;7.93;;;;;13.40;96758.00;;;;8308848;28;20595;-66
2023/05/09 00:08:08;;;;;;;10.48;7.97;;;;;13.40;96749.00;;;;8303071;28;20219;-67
2023/05/09 00:12:12;;;;;;;14.18;8.75;;;;;13.50;96753.00;;;;8311652;28;20228;-66
2023/05/09 00:16:17;;;;;;;11.30;7.85;;;;;13.50;96746.00;;;;8302771;28;20201;-67
2023/05/09 00:20:27;;;;;;;13.05;8.30;;;;;13.60;96736.00;;;;8311123;28;20211;-66
2023/05/09 00:24:30;;;;;;;12.70;8.38;;;;;13.60;96731.00;;;;8313971;28;20204;-68
2023/05/09 00:28:33;;;;;;;12.10;9.07;;;;;13.60;96732.00;;;;8313816;28;20203;-67
2023/05/09 00:32:36;;;;;;;14.90;9.73;;;;;13.60;96730.00;;;;8314995;28;20286;-66
2023/05/09 00:36:42;;;;;;;13.23;9.32;;;;;13.60;96732.00;;;;8310881;28;20329;-66
2023/05/09 00:40:50;;;;;;;14.63;9.70;;;;;13.60;96734.00;;;;8315538;28;20201;-67
2023/05/09 00:44:53;;;;;;;17.67;9.93;;;;;13.60;96726.00;;;;8313392;28;20201;-69
2023/05/09 00:48:56;;;;;;;17.60;10.77;;;;;13.60;96723.00;;;;8297896;28;20213;-69
2023/05/09 00:53:03;;;;;;;17.83;10.13;;;;;13.60;96733.00;;;;8310863;28;20231;-67
2023/05/09 00:57:06;;;;;;;17.73;11.20;;;;;13.60;96728.00;;;;8303072;28;20828;-67
2023/05/09 01:01:15;;;;;;;23.13;11.07;;;;;13.70;96721.00;;;;8314833;28;20203;-67
2023/05/09 01:05:20;;;;;;;18.70;10.93;;;;;13.70;96721.00;;;;8307933;28;20586;-68
2023/05/09 01:09:38;;;;;;;15.23;11.20;;;;;13.60;96714.00;;;;8302344;28;20205;-68
2023/05/09 01:13:50;;;;;;;17.23;11.20;;;;;13.60;96711.00;;;;8309552;28;20220;-67
2023/05/09 01:17:58;;;;;;;18.10;10.55;;;;;13.60;96702.00;;;;8317888;28;20291;-67
2023/05/09 01:22:06;;;;;;;16.48;11.05;;;;;13.60;96695.00;;;;8313310;28;20267;-67
2023/05/09 01:26:19;;;;;;;17.50;11.23;;;;;13.50;96695.00;;;;8314729;28;20197;-66
2023/05/09 01:30:27;;;;;;;18.17;11.27;;;;;13.50;96694.00;;;;8314986;28;20229;-67
2023/05/09 01:34:35;;;;;;;16.35;11.25;;;;;13.50;96703.00;;;;8317116;28;20913;-66
2023/05/09 01:38:44;;;;;;;16.35;11.23;;;;;13.50;96692.00;;;;8308508;28;20210;-67
2023/05/09 01:43:07;;;;;;;20.73;11.30;;;;;13.50;96696.00;;;;8318029;28;20197;-67
2023/05/09 01:47:18;;;;;;;18.73;11.68;;;;;13.40;96694.00;;;;8314078;28;20610;-68
2023/05/09 01:51:21;;;;;;;16.70;10.70;;;;;13.40;96688.00;;;;8315414;28;20279;-68
2023/05/09 01:55:31;;;;;;;18.65;11.93;;;;;13.40;96690.00;;;;8315870;28;20283;-68
2023/05/09 01:59:43;;;;;;;17.65;11.48;;;;;13.40;96682.00;;;;8308056;28;20272;-67
2023/05/09 02:03:51;;;;;;;17.30;11.57;;;;;13.30;96684.00;;;;8310029;28;20218;-66
2023/05/09 02:07:57;;;;;;;18.48;11.45;;;;;13.30;96682.00;;;;8303470;28;20229;-67
2023/05/09 02:12:03;;;;;;;17.83;12.07;;;;;13.30;96675.00;;;;8320259;28;20227;-67
2023/05/09 02:16:08;;;;;;;22.52;13.45;;;;;13.30;96674.00;;;;8310943;28;20211;-67
2023/05/09 02:20:13;;;;;;;20.23;12.15;;;;;13.30;96672.00;;;;8312572;28;20205;-67
2023/05/09 02:24:28;;;;;;;18.80;12.25;;;;;13.30;96671.00;;;;8310032;28;20255;-66
2023/05/09 02:28:36;;;;;;;22.65;13.45;;;;;13.20;96665.00;;;;8308075;28;20595;-68
2023/05/09 02:32:40;;;;;;;21.25;13.32;;;;;13.20;96672.00;;;;8309667;28;20256;-67
2023/05/09 02:36:47;;;;;;;20.63;13.50;;;;;13.10;96668.00;;;;8312321;28;20335;-68
2023/05/09 02:40:52;;;;;;;24.58;14.50;;;;;13.10;96666.00;;;;8308639;28;20262;-67
2023/05/09 02:44:56;;;;;;;22.20;13.18;;;;;13.10;96673.00;;;;8314859;28;20651;-67
2023/05/09 02:48:59;;;;;;;21.80;13.70;;;;;13.10;96670.00;;;;8310468;28;20647;-68
2023/05/09 02:53:04;;;;;;;24.27;13.68;;;;;13.10;96660.00;;;;8315044;28;20307;-68
2023/05/09 02:57:09;;;;;;;23.85;14.20;;;;;13.10;96654.00;;;;8312050;28;20213;-67
2023/05/09 03:01:13;;;;;;;22.42;13.90;;;;;13.00;96653.00;;;;8360255;23;20220;-69
2023/05/09 03:05:18;;;;;;;25.48;14.32;;;;;12.90;96642.00;;;;8296669;28;20215;-68
2023/05/09 03:09:22;;;;;;;24.23;13.68;;;;;12.90;96642.00;;;;8312206;28;20625;-67
2023/05/09 03:13:28;;;;;;;22.98;14.15;;;;;12.80;96650.00;;;;8326034;28;20571;-67
2023/05/09 03:17:33;;;;;;;24.52;13.95;;;;;12.80;96646.00;;;;8306271;28;20208;-68
2023/05/09 03:21:36;;;;;;;21.10;13.02;;;;;12.70;96643.00;;;;8315798;28;20205;-66
2023/05/09 03:25:43;;;;;;;26.40;14.48;;;;;12.70;96641.00;;;;8317808;28;20295;-67
2023/05/09 03:29:49;;;;;;;26.02;13.73;;;;;12.60;96636.00;;;;8323812;28;20239;-67
2023/05/09 03:33:54;;;;;;;21.08;13.50;;;;;12.60;96632.00;;;;8306260;28;20236;-67
2023/05/09 03:37:57;;;;;;;23.13;14.75;;;;;12.50;96637.00;;;;8309992;28;20227;-67
2023/05/09 03:42:02;;;;;;;26.73;15.65;;;;;12.50;96641.00;;;;8316168;28;21394;-65
2023/05/09 03:46:05;;;;;;;26.25;15.07;;;;;12.50;96626.00;;;;8323097;28;20305;-66
2023/05/09 03:50:09;;;;;;;26.75;15.18;;;;;12.40;96630.00;;;;8327952;28;20200;-66
2023/05/09 03:54:14;;;;;;;26.17;15.32;;;;;12.40;96634.00;;;;8319205;28;20273;-66
2023/05/09 03:58:19;;;;;;;27.48;15.93;;;;;12.40;96623.00;;;;8314544;28;20727;-68
2023/05/09 04:02:23;;;;;;;25.92;15.82;;;;;12.40;96621.00;;;;8310036;28;20676;-67
2023/05/09 04:06:28;;;;;;;26.85;16.60;;;;;12.40;96624.00;;;;8309053;28;20235;-67
2023/05/09 04:10:38;;;;;;;25.00;15.75;;;;;12.40;96624.00;;;;8315361;28;20346;-66
2023/05/09 04:14:48;;;;;;;27.52;15.85;;;;;12.50;96626.00;;;;8313190;28;20201;-66
2023/05/09 04:18:59;;;;;;;27.67;16.10;;;;;12.60;96630.00;;;;8313448;28;20254;-67
2023/05/09 04:23:02;;;;;;;27.25;15.88;;;;;12.70;96629.00;;;;8312848;28;20200;-68
2023/05/09 04:27:10;;;;;;;26.00;16.38;;;;;12.80;96627.00;;;;8313821;28;20199;-67
2023/05/09 04:31:18;;;;;;;31.30;16.33;;;;;12.90;96631.00;;;;8315008;28;20271;-65
2023/05/09 04:35:23;;;;;;;24.77;15.85;;;;;13.00;96631.00;;;;8329203;28;20195;-67
2023/05/09 04:39:26;;;;;;;28.83;16.08;;;;;13.10;96630.00;;;;8323149;28;20196;-66
2023/05/09 04:43:30;;;;;;;27.73;16.35;;;;;13.20;96635.00;;;;8322720;28;20196;-66
2023/05/09 04:47:34;;;;;;;27.88;14.95;;;;;13.30;96631.00;;;;8326139;28;20257;-67
2023/05/09 04:51:40;;;;;;;34.83;15.32;;;;;13.40;96630.00;;;;8328171;28;20244;-67
2023/05/09 04:55:43;;;;;;;22.17;14.90;;;;;13.60;96634.00;;;;8313761;28;20201;-67
2023/05/09 04:59:51;;;;;;;24.88;14.77;;;;;13.70;96624.00;;;;8328722;28;20191;-66
2023/05/09 05:03:56;;;;;;;21.25;14.10;;;;;13.80;96622.00;;;;8337737;28;20332;-67
2023/05/09 05:08:01;;;;;;;27.50;14.57;;;;;13.90;96619.00;;;;8327727;28;20223;-66
2023/05/09 05:12:06;;;;;;;22.85;14.73;;;;;14.00;96611.00;;;;8338002;28;20240;-65
2023/05/09 05:16:11;;;;;;;21.55;13.43;;;;;14.10;96622.00;;;;8334592;28;20196;-67
2023/05/09 05:20:16;;;;;;;24.88;14.32;;;;;14.20;96623.00;;;;8333989;28;20658;-66
2023/05/09 05:24:19;;;;;;;21.40;13.23;;;;;14.40;96622.00;;;;8323699;28;20193;-66
2023/05/09 05:28:22;;;;;;;23.15;14.20;;;;;14.50;96628.00;;;;8325585;28;20197;-67
2023/05/09 05:32:25;;;;;;;19.17;13.25;;;;;14.70;96620.00;;;;8323795;28;20223;-66
2023/05/09 05:36:30;;;;;;;20.00;13.07;;;;;14.80;96633.00;;;;8316681;28;20249;-67
2023/05/09 05:40:33;;;;;;;20.15;12.95;;;;;14.90;96627.00;;;;8331432;28;20244;-66
2023/05/09 05:44:40;;;;;;;17.60;13.00;;;;;15.10;96616.00;;;;8321464;28;20208;-66
2023/05/09 05:48:48;;;;;;;17.27;12.50;;;;;15.20;96618.00;;;;8324010;28;20249;-67
2023/05/09 05:52:53;;;;;;;16.33;12.32;;;;;15.20;96615.00;;;;8328643;28;20225;-67
2023/05/09 05:56:56;;;;;;;20.05;13.40;;;;;15.40;96607.00;;;;8329561;28;20248;-66
2023/05/09 06:00:59;;;;;;;18.92;11.27;;;;;15.40;96598.00;;;;8324980;28;20265;-67
2023/05/09 06:05:03;;;;;;;18.17;12.00;;;;;15.50;96607.00;;;;8321552;28;20234;-66
2023/05/09 06:09:08;;;;;;;17.80;12.48;;;;;15.80;96608.00;;;;8334449;28;20210;-66
2023/05/09 06:13:11;;;;;;;18.95;12.35;;;;;16.00;96608.00;;;;8305280;28;20752;-66
2023/05/09 06:17:14;;;;;;;17.17;11.70;;;;;16.10;96599.00;;;;8322651;28;20202;-68
2023/05/09 06:21:20;;;;;;;14.98;12.18;;;;;16.20;96601.00;;;;8325837;28;20855;-66
2023/05/09 06:25:25;;;;;;;15.45;11.65;;;;;16.30;96604.00;;;;8324953;28;20840;-66
2023/05/09 06:29:31;;;;;;;12.35;9.65;;;;;16.70;96602.00;;;;8325181;28;20826;-67
2023/05/09 06:33:34;;;;;;;12.13;7.20;;;;;17.20;96600.00;;;;8323064;28;20217;-67
2023/05/09 06:37:41;;;;;;;10.45;7.20;;;;;17.90;96599.00;;;;8320528;28;20228;-67
2023/05/09 06:41:51;;;;;;;11.18;7.30;;;;;18.80;96587.00;;;;8319476;28;20281;-67
2023/05/09 06:45:55;;;;;;;10.52;6.50;;;;;20.10;96588.00;;;;8321791;28;20197;-67
2023/05/09 06:50:01;;;;;;;11.40;6.93;;;;;21.30;96598.00;;;;8322390;28;20209;-68
2023/05/09 06:54:07;;;;;;;9.80;6.20;;;;;22.10;96590.00;;;;8322317;28;20229;-66
2023/05/09 06:58:12;;;;;;;7.80;5.78;;;;;22.50;96596.00;;;;8321434;28;20201;-68
2023/05/09 07:02:15;;;;;;;8.45;6.18;;;;;22.60;96591.00;;;;8322020;28;20224;-67
2023/05/09 07:06:18;;;;;;;7.47;5.07;;;;;22.90;96585.00;;;;8316601;28;20214;-68
2023/05/09 07:10:22;;;;;;;8.27;5.65;;;;;23.10;96575.00;;;;8319088;28;20204;-67
2023/05/09 07:14:26;;;;;;;9.30;5.70;;;;;23.30;96574.00;;;;8321575;28;20236;-68
2023/05/09 07:18:29;;;;;;;11.93;5.97;;;;;23.40;96582.00;;;;8317229;28;20634;-67
2023/05/09 07:22:32;;;;;;;10.07;5.63;;;;;23.40;96569.00;;;;8327878;28;20290;-67
2023/05/09 07:26:39;;;;;;;6.55;5.03;;;;;23.30;96568.00;;;;8327452;28;20289;-67
2023/05/09 07:30:43;;;;;;;7.57;4.63;;;;;23.30;96553.00;;;;8336798;28;20200;-67
2023/05/09 07:34:46;;;;;;;7.28;5.00;;;;;23.30;96560.00;;;;8333061;28;20224;-67
2023/05/09 07:38:53;;;;;;;10.32;4.72;;;;;23.50;96560.00;;;;8340691;28;20192;-67
2023/05/09 07:42:57;;;;;;;7.03;4.50;;;;;23.40;96558.00;;;;8321471;28;20661;-66
2023/05/09 07:47:07;;;;;;;6.97;4.15;;;;;23.10;96556.00;;;;8324597;28;20508;-67
2023/05/09 07:51:11;;;;;;;5.18;4.68;;;;;23.00;96553.00;;;;8325744;28;20193;-69
2023/05/09 07:55:14;;;;;;;5.18;4.60;;;;;22.80;96541.00;;;;8308565;28;20276;-67
2023/05/09 07:59:18;;;;;;;9.10;4.45;;;;;23.10;96547.00;;;;8314841;28;20376;-67
2023/05/09 08:03:22;;;;;;;5.28;4.00;;;;;23.40;96544.00;;;;8327887;28;20843;-68
2023/05/09 08:07:25;;;;;;;4.82;4.32;;;;;23.40;96542.00;;;;8309396;28;20189;-67
2023/05/09 08:11:29;;;;;;;5.72;4.30;;;;;23.50;96537.00;;;;8333135;28;20197;-67
2023/05/09 08:15:32;;;;;;;4.20;3.85;;;;;23.40;96535.00;;;;8329436;28;20267;-68
2023/05/09 08:19:36;;;;;;;4.40;3.90;;;;;23.70;96526.00;;;;8328413;28;20200;-67
2023/05/09 08:23:40;;;;;;;4.25;3.85;;;;;23.70;96521.00;;;;8325052;28;20247;-68
2023/05/09 08:27:46;;;;;;;4.65;3.65;;;;;23.60;96509.00;;;;8327310;28;20193;-68
2023/05/09 08:32:00;;;;;;;6.57;4.57;;;;;23.80;96504.00;;;;8332241;28;20201;-67
2023/05/09 08:36:06;;;;;;;4.07;3.78;;;;;24.30;96502.00;;;;8328309;28;20205;-67
2023/05/09 08:40:13;;;;;;;8.75;4.47;;;;;24.80;96506.00;;;;8320309;28;20273;-68
2023/05/09 08:44:24;;;;;;;6.47;4.05;;;;;24.80;96499.00;;;;8326632;28;20252;-68
2023/05/09 08:48:28;;;;;;;4.85;4.20;;;;;24.60;96489.00;;;;8324098;28;20260;-68
2023/05/09 08:52:33;;;;;;;7.05;4.45;;;;;25.30;96494.00;;;;8341145;28;20282;-69
2023/05/09 08:56:42;;;;;;;8.00;4.70;;;;;25.70;96495.00;;;;8326145;28;20190;-67
2023/05/09 09:00:47;;;;;;;5.68;5.18;;;;;25.90;96493.00;;;;8333223;28;20198;-68
2023/05/09 09:04:50;;;;;;;8.38;5.30;;;;;25.80;96493.00;;;;8328237;28;20221;-67
2023/05/09 09:08:56;;;;;;;4.63;4.22;;;;;25.80;96483.00;;;;8333231;28;20197;-68
2023/05/09 09:13:03;;;;;;;9.82;4.60;;;;;25.90;96476.00;;;;8324133;28;20218;-68
2023/05/09 09:17:14;;;;;;;6.25;4.53;;;;;26.40;96470.00;;;;8317331;28;20244;-67
2023/05/09 09:21:20;;;;;;;13.43;4.38;;;;;26.50;96468.00;;;;8322536;28;20195;-67
2023/05/09 09:25:24;;;;;;;4.28;3.88;;;;;26.50;96465.00;;;;8324489;28;20819;-67
2023/05/09 09:29:30;;;;;;;4.80;3.97;;;;;26.90;96462.00;;;;8321486;28;20202;-68
2023/05/09 09:33:36;;;;;;;8.52;4.43;;;;;26.90;96453.00;;;;8320845;28;20287;-67
2023/05/09 09:37:43;;;;;;;5.30;3.63;;;;;27.10;96454.00;;;;8324180;28;20295;-68
2023/05/09 09:41:49;;;;;;;5.10;4.28;;;;;27.20;96453.00;;;;8331150;28;20241;-69
2023/05/09 09:45:54;;;;;;;4.65;4.25;;;;;26.90;96440.00;;;;8327161;28;20226;-68
2023/05/09 09:50:10;;;;;;;4.40;4.00;;;;;27.30;96436.00;;;;8322442;28;20252;-68
2023/05/09 09:54:17;;;;;;;4.68;4.22;;;;;27.20;96425.00;;;;8331246;28;20292;-68
2023/05/09 09:58:23;;;;;;;5.38;3.45;;;;;27.30;96417.00;;;;8323286;28;20251;-68
2023/05/09 10:02:26;;;;;;;4.20;3.90;;;;;27.50;96414.00;;;;8317394;28;20220;-69
2023/05/09 10:06:30;;;;;;;5.47;4.05;;;;;27.40;96411.00;;;;8322129;28;20200;-68
2023/05/09 10:10:37;;;;;;;6.15;4.30;;;;;27.40;96406.00;;;;8330269;28;20217;-68
2023/05/09 10:14:44;;;;;;;7.32;4.00;;;;;27.40;96407.00;;;;8332421;28;20233;-67
2023/05/09 10:18:50;;;;;;;4.80;4.30;;;;;27.80;96401.00;;;;8323617;28;20205;-67
2023/05/09 10:22:57;;;;;;;11.43;4.43;;;;;28.10;96395.00;;;;8322804;28;20284;-68
2023/05/09 10:27:06;;;;;;;7.20;4.00;;;;;28.30;96381.00;;;;8323515;28;20201;-68
2023/05/09 10:31:17;;;;;;;7.90;3.85;;;;;28.30;96381.00;;;;8319663;28;20776;-68
2023/05/09 10:35:27;;;;;;;5.72;3.88;;;;;28.40;96374.00;;;;8317368;28;20663;-69
2023/05/09 10:39:32;;;;;;;5.43;3.88;;;;;28.40;96363.00;;;;8333354;28;20205;-67
2023/05/09 10:43:36;;;;;;;5.22;3.58;;;;;28.40;96363.00;;;;8328825;28;20791;-68
2023/05/09 10:47:46;;;;;;;3.50;3.17;;;;;28.40;96353.00;;;;8331342;28;20557;-68
2023/05/09 10:51:55;;;;;;;7.53;3.88;;;;;28.50;96347.00;;;;8337510;28;20201;-68
2023/05/09 10:56:01;;;;;;;8.75;3.75;;;;;28.60;96342.00;;;;8325785;28;20283;-67
2023/05/09 11:00:10;;;;;;;5.30;3.58;;;;;29.00;96344.00;;;;8322420;28;20201;-69
2023/05/09 11:04:17;;;;;;;5.90;3.88;;;;;29.40;96330.00;;;;8331940;28;20309;-68
2023/05/09 11:08:25;;;;;;;4.72;3.42;;;;;29.60;96330.00;;;;8326448;28;20193;-68
2023/05/09 11:12:28;;;;;;;4.38;3.97;;;;;29.60;96325.00;;;;8326768;28;20196;-69
2023/05/09 11:16:31;;;;;;;7.70;4.45;;;;;29.10;96312.00;;;;8321178;28;20546;-69
2023/05/09 11:20:42;;;;;;;6.93;4.95;;;;;28.70;96317.00;;;;8318510;28;20583;-69
2023/05/09 11:24:52;;;;;;;5.70;4.72;;;;;28.60;96308.00;;;;8321992;28;20733;-69
2023/05/09 11:28:59;;;;;;;4.63;4.18;;;;;29.10;96300.00;;;;8326778;28;20639;-67
2023/05/09 11:33:05;;;;;;;17.65;4.70;;;;;29.30;96287.00;;;;8315985;28;20213;-67
2023/05/09 11:37:12;;;;;;;9.07;4.15;;;;;29.60;96277.00;;;;8323529;28;20204;-68
2023/05/09 11:41:18;;;;;;;9.35;4.60;;;;;29.70;96267.00;;;;8327586;28;20204;-67
2023/05/09 11:45:35;;;;;;;7.10;4.80;;;;;29.80;96252.00;;;;8314433;28;20201;-69
2023/05/09 11:49:38;;;;;;;7.45;4.95;;;;;29.90;96250.00;;;;8323834;28;20201;-68
2023/05/09 11:53:46;;;;;;;5.10;4.40;;;;;29.90;96238.00;;;;8319590;28;20287;-69
2023/05/09 11:57:51;;;;;;;10.80;4.03;;;;;29.60;96236.00;;;;8317050;28;20226;-69
2023/05/09 12:01:55;;;;;;;5.68;4.15;;;;;29.40;96235.00;;;;8315853;28;20233;-67
2023/05/09 12:06:00;;;;;;;4.85;4.45;;;;;29.60;96228.00;;;;8320890;28;20757;-67
2023/05/09 12:10:07;;;;;;;4.63;4.22;;;;;29.30;96219.00;;;;8323650;28;20193;-67
2023/05/09 12:14:12;;;;;;;4.35;3.95;;;;;28.60;96206.00;;;;8318360;28;20233;-67
2023/05/09 12:18:17;;;;;;;4.68;4.22;;;;;27.90;96202.00;;;;8332244;28;20201;-68
2023/05/09 12:22:21;;;;;;;9.70;5.15;;;;;27.20;96208.00;;;;8333413;28;20205;-67
2023/05/09 12:26:28;;;;;;;4.65;3.80;;;;;26.60;96202.00;;;;8345911;28;20250;-67
2023/05/09 12:30:32;;;;;;;6.85;4.35;;;;;26.20;96183.00;;;;8317728;28;20256;-69
2023/05/09 12:34:36;;;;;;;7.55;5.45;;;;;25.90;96188.00;;;;8311735;28;20713;-68
2023/05/09 12:38:39;;;;;;;10.63;5.53;;;;;25.80;96184.00;;;;8338284;28;20855;-67
2023/05/09 12:42:45;;;;;;;6.20;5.05;;;;;25.80;96173.00;;;;8325970;28;20205;-68
2023/05/09 12:46:59;;;;;;;7.60;4.82;;;;;25.90;96170.00;;;;8329948;28;20312;-68
2023/05/09 12:51:03;;;;;;;5.78;4.20;;;;;25.70;96162.00;;;;8318594;28;20197;-67
2023/05/09 12:55:11;;;;;;;5.68;4.80;;;;;25.60;96152.00;;;;8319452;28;20650;-68
2023/05/09 12:59:20;;;;;;;6.00;4.22;;;;;25.70;96149.00;;;;8322244;28;20186;-70
2023/05/09 13:03:26;;;;;;;6.13;4.63;;;;;25.90;96141.00;;;;8323990;28;20283;-68
2023/05/09 13:07:29;;;;;;;6.13;4.32;;;;;26.10;96143.00;;;;8320186;28;20217;-67
2023/05/09 13:11:32;;;;;;;7.30;5.25;;;;;26.20;96134.00;;;;8330559;28;20235;-69
2023/05/09 13:15:37;;;;;;;7.88;5.57;;;;;26.00;96114.00;;;;8326962;28;20906;-68
2023/05/09 13:19:40;;;;;;;8.35;5.07;;;;;26.20;96120.00;;;;8323446;28;20259;-68
2023/05/09 13:23:51;;;;;;;6.03;5.13;;;;;26.40;96110.00;;;;8319950;28;20202;-67
2023/05/09 13:27:56;;;;;;;5.88;4.88;;;;;27.00;96113.00;;;;8308362;28;20236;-67
2023/05/09 13:32:02;;;;;;;7.60;5.25;;;;;27.90;96101.00;;;;8310609;28;20210;-69
2023/05/09 13:36:06;;;;;;;8.80;4.88;;;;;28.40;96089.00;;;;8313596;28;20301;-70
2023/05/09 13:40:13;;;;;;;10.88;6.32;;;;;28.70;96090.00;;;;8317634;28;20252;-70
2023/05/09 13:44:16;;;;;;;10.63;5.90;;;;;28.70;96080.00;;;;8313199;28;20221;-69
2023/05/09 13:48:22;;;;;;;5.50;5.00;;;;;28.80;96071.00;;;;8314384;28;20678;-69
2023/05/09 13:52:26;;;;;;;13.60;5.05;;;;;28.90;96071.00;;;;8306415;28;20198;-68
2023/05/09 13:56:31;;;;;;;5.68;5.03;;;;;28.80;96075.00;;;;8303268;28;20800;-69
2023/05/09 14:00:35;;;;;;;5.22;4.80;;;;;29.00;96073.00;;;;8310508;28;20664;-69
2023/05/09 14:04:45;;;;;;;4.70;4.13;;;;;29.00;96058.00;;;;8309729;28;20232;-69
2023/05/09 14:08:48;;;;;;;5.30;4.57;;;;;29.10;96060.00;;;;8309136;28;20198;-66
2023/05/09 14:12:52;;;;;;;6.43;5.00;;;;;29.10;96050.00;;;;8312656;28;20293;-67
2023/05/09 14:16:57;;;;;;;5.70;4.85;;;;;29.30;96042.00;;;;8315422;28;20198;-68
2023/05/09 14:21:07;;;;;;;10.32;5.22;;;;;29.20;96037.00;;;;8316618;28;20473;-69
2023/05/09 14:25:12;;;;;;;5.10;4.60;;;;;29.00;96039.00;;;;8314459;28;20218;-68
2023/05/09 14:29:16;;;;;;;8.43;4.55;;;;;28.80;96033.00;;;;8316565;28;20197;-68
2023/05/09 14:33:20;;;;;;;4.18;3.50;;;;;28.80;96027.00;;;;8321882;28;20197;-67
2023/05/09 14:37:24;;;;;;;5.28;4.55;;;;;29.00;96012.00;;;;8317082;28;20744;-67
2023/05/09 14:41:27;;;;;;;5.30;4.20;;;;;29.20;96005.00;;;;8319399;28;20205;-69
2023/05/09 14:45:32;;;;;;;5.78;4.68;;;;;29.40;96011.00;;;;8324771;28;20260;-68
2023/05/09 14:49:40;;;;;;;4.75;4.13;;;;;29.30;96004.00;;;;8317661;28;20880;-67
2023/05/09 14:53:47;;;;;;;6.10;3.75;;;;;29.60;95999.00;;;;8322539;28;20284;-68
2023/05/09 14:57:52;;;;;;;3.78;3.47;;;;;29.90;95989.00;;;;8321746;28;20555;-68
2023/05/09 15:01:55;;;;;;;3.75;2.97;;;;;30.00;95985.00;;;;8315554;28;20225;-69
2023/05/09 15:06:00;;;;;;;4.18;3.10;;;;;30.10;95983.00;;;;8319404;28;20295;-67
2023/05/09 15:10:05;;;;;;;10.63;3.50;;;;;29.80;95975.00;;;;8316732;28;20267;-69
2023/05/09 15:14:11;;;;;;;3.38;3.08;;;;;29.50;95971.00;;;;8318755;28;20643;-67
2023/05/09 15:18:17;;;;;;;3.83;3.08;;;;;29.10;95964.00;;;;8318469;28;20212;-67
2023/05/09 15:22:20;;;;;;;7.95;3.00;;;;;28.80;95961.00;;;;8320536;28;20618;-68
2023/05/09 15:26:25;;;;;;;2.80;2.58;;;;;28.40;95951.00;;;;8318349;28;20340;-67
2023/05/09 15:30:32;;;;;;;3.15;2.85;;;;;28.10;95942.00;;;;8312559;28;20207;-68
2023/05/09 15:34:35;;;;;;;2.90;2.63;;;;;28.10;95939.00;;;;8298755;28;20263;-68
2023/05/09 15:38:38;;;;;;;5.57;3.05;;;;;28.20;95931.00;;;;8306185;28;20251;-69
2023/05/09 15:42:42;;;;;;;3.15;2.95;;;;;28.40;95916.00;;;;8312720;28;20712;-67
2023/05/09 15:46:47;;;;;;;3.80;2.80;;;;;28.30;95911.00;;;;8313750;28;20283;-67
2023/05/09 15:50:54;;;;;;;4.20;2.72;;;;;28.40;95907.00;;;;8316902;28;20293;-68
2023/05/09 15:55:00;;;;;;;3.78;2.80;;;;;28.60;95908.00;;;;8317656;28;20730;-68
2023/05/09 15:59:05;;;;;;;5.22;2.50;;;;;28.50;95905.00;;;;8314212;28;20206;-67
2023/05/09 16:03:08;;;;;;;5.80;2.83;;;;;28.70;95901.00;;;;8312364;28;20229;-70
2023/05/09 16:07:11;;;;;;;4.63;3.00;;;;;28.40;95897.00;;;;8318311;28;20340;-68
2023/05/09 16:11:15;;;;;;;7.65;3.22;;;;;27.90;95901.00;;;;8325638;28;20239;-67
2023/05/09 16:15:22;;;;;;;3.25;2.38;;;;;27.50;95891.00;;;;8327933;28;20578;-67
2023/05/09 16:19:26;;;;;;;6.68;2.78;;;;;27.20;95886.00;;;;8329265;28;20251;-68
2023/05/09 16:23:30;;;;;;;3.72;2.63;;;;;27.20;95873.00;;;;8324053;28;20193;-67
2023/05/09 16:27:37;;;;;;;3.00;2.75;;;;;27.20;95871.00;;;;8316347;28;20255;-67
2023/05/09 16:31:43;;;;;;;3.28;2.97;;;;;27.30;95860.00;;;;8323059;28;20684;-67
2023/05/09 16:35:48;;;;;;;4.13;3.00;;;;;27.20;95857.00;;;;8323483;28;20204;-67
2023/05/09 16:39:53;;;;;;;14.43;3.03;;;;;27.20;95855.00;;;;8316068;28;20213;-66
2023/05/09 16:43:59;;;;;;;7.80;3.50;;;;;27.20;95857.00;;;;8330583;28;20228;-67
2023/05/09 16:48:06;;;;;;;3.40;2.78;;;;;27.20;95846.00;;;;8332524;28;20247;-67
2023/05/09 16:52:09;;;;;;;7.35;3.38;;;;;27.30;95836.00;;;;8326637;28;20292;-67
2023/05/09 16:56:14;;;;;;;3.25;2.95;;;;;27.50;95838.00;;;;8320688;28;20209;-68
2023/05/09 17:00:19;;;;;;;3.95;2.90;;;;;27.60;95838.00;;;;8315869;28;20536;-68
2023/05/09 17:04:28;;;;;;;4.13;2.88;;;;;27.40;95833.00;;;;8321234;28;20225;-68
2023/05/09 17:08:31;;;;;;;6.72;2.60;;;;;27.20;95827.00;;;;8315446;28;20225;-67
2023/05/09 17:12:34;;;;;;;3.28;2.83;;;;;26.90;95829.00;;;;8316581;28;20267;-68
2023/05/09 17:16:39;;;;;;;3.28;2.97;;;;;26.40;95830.00;;;;8310851;28;20221;-67
2023/05/09 17:20:43;;;;;;;6.57;3.35;;;;;25.80;95823.00;;;;8315390;28;20771;-67
2023/05/09 17:24:49;;;;;;;3.38;3.08;;;;;25.20;95821.00;;;;8319567;28;20201;-67
2023/05/09 17:28:52;;;;;;;5.22;3.53;;;;;24.70;95815.00;;;;8318277;28;20226;-67
2023/05/09 17:32:57;;;;;;;3.95;3.55;;;;;24.20;95811.00;;;;8317022;28;20202;-68
2023/05/09 17:37:04;;;;;;;4.65;3.35;;;;;23.70;95806.00;;;;8325398;28;20206;-68
2023/05/09 17:41:07;;;;;;;7.68;4.80;;;;;23.40;95803.00;;;;8313980;28;20287;-67
2023/05/09 17:45:11;;;;;;;10.70;6.80;;;;;23.00;95805.00;;;;8308198;28;20744;-67
2023/05/09 17:49:16;;;;;;;9.32;5.75;;;;;22.60;95800.00;;;;8312781;28;20229;-66
2023/05/09 17:53:23;;;;;;;40.30;17.00;;;;;22.40;95795.00;;;;8313823;28;20209;-68
2023/05/09 17:57:29;;;;;;;29.40;12.57;;;;;22.10;95796.00;;;;8314275;28;20197;-67
2023/05/09 18:01:33;;;;;;;29.55;11.95;;;;;21.90;95781.00;;;;8314091;28;20205;-67
2023/05/09 18:05:38;;;;;;;19.90;8.38;;;;;21.60;95785.00;;;;8318928;28;20236;-66
2023/05/09 18:09:46;;;;;;;30.63;10.88;;;;;21.40;95775.00;;;;8309550;28;20196;-67
2023/05/09 18:13:49;;;;;;;47.55;13.98;;;;;21.10;95765.00;;;;8322707;28;20197;-66
2023/05/09 18:17:53;;;;;;;9.93;3.85;;;;;20.90;95764.00;;;;8303213;28;21218;-64
2023/05/09 18:22:00;;;;;;;13.05;8.02;;;;;20.70;95767.00;;;;8311083;28;20214;-67
2023/05/09 18:26:04;;;;;;;5.97;3.58;;;;;20.40;95760.00;;;;8309391;28;20233;-66
2023/05/09 18:30:09;;;;;;;6.63;3.58;;;;;20.20;95757.00;;;;8324013;28;20250;-65
2023/05/09 18:34:14;;;;;;;7.20;3.75;;;;;19.90;95751.00;;;;8309184;28;20923;-66
2023/05/09 18:38:19;;;;;;;5.53;4.07;;;;;19.70;95758.00;;;;8314079;28;21013;-66
2023/05/09 18:42:24;;;;;;;6.05;3.95;;;;;19.50;95750.00;;;;8306880;28;20228;-66
2023/05/09 18:46:28;;;;;;;6.00;3.88;;;;;19.30;95748.00;;;;8302314;28;20628;-65
2023/05/09 18:50:34;;;;;;;3.97;3.30;;;;;19.10;95749.00;;;;8298715;28;20197;-66
2023/05/09 18:54:39;;;;;;;5.32;3.78;;;;;18.90;95743.00;;;;8306026;28;20193;-66
2023/05/09 18:58:44;;;;;;;6.30;4.20;;;;;18.70;95735.00;;;;8312047;28;20639;-65
2023/05/09 19:02:47;;;;;;;7.65;3.55;;;;;18.50;95743.00;;;;8305506;28;20225;-65
2023/05/09 19:06:52;;;;;;;8.13;3.83;;;;;18.30;95748.00;;;;8311731;28;20226;-65
2023/05/09 19:10:56;;;;;;;6.38;3.65;;;;;18.20;95749.00;;;;8308974;28;20206;-65
2023/05/09 19:15:00;;;;;;;6.03;3.80;;;;;18.00;95740.00;;;;8309288;28;20235;-66
2023/05/09 19:19:06;;;;;;;5.65;3.67;;;;;17.70;95738.00;;;;8303993;28;20304;-67
2023/05/09 19:23:10;;;;;;;3.58;3.28;;;;;17.50;95739.00;;;;8300521;28;20647;-66
2023/05/09 19:27:18;;;;;;;8.70;3.75;;;;;17.40;95741.00;;;;8294230;28;20899;-68
2023/05/09 19:31:27;;;;;;;5.60;3.90;;;;;17.10;95742.00;;;;8307782;28;20197;-66
2023/05/09 19:35:31;;;;;;;4.85;3.88;;;;;17.00;95747.00;;;;8297304;28;20625;-67
2023/05/09 19:39:34;;;;;;;5.78;4.00;;;;;16.80;95748.00;;;;8302096;28;20254;-66
2023/05/09 19:43:37;;;;;;;4.85;4.13;;;;;16.60;95740.00;;;;8315387;28;20200;-65
2023/05/09 19:48:20;;;;;;;5.93;4.30;;;;;16.50;95740.00;;;;8300633;28;20232;-65
2023/05/09 19:52:24;;;;;;;5.55;3.92;;;;;16.40;95737.00;;;;8307916;28;20264;-67
2023/05/09 19:56:27;;;;;;;5.97;4.13;;;;;16.40;95730.00;;;;8313422;28;20279;-65
2023/05/09 20:00:31;;;;;;;10.55;3.97;;;;;16.40;95728.00;;;;8317241;28;20194;-65
2023/05/09 20:04:40;;;;;;;6.43;3.58;;;;;16.40;95727.00;;;;8310992;28;20233;-67
2023/05/09 20:08:50;;;;;;;7.43;4.00;;;;;16.40;95722.00;;;;8315416;28;20249;-66
2023/05/09 20:12:57;;;;;;;5.82;4.13;;;;;16.30;95728.00;;;;8318300;28;20200;-67
2023/05/09 20:17:01;;;;;;;8.52;3.85;;;;;16.30;95721.00;;;;8320216;28;21631;-67
2023/05/09 20:21:10;;;;;;;4.30;3.90;;;;;16.30;95728.00;;;;8323246;28;20220;-65